LTAC/ESB METAR and TAF weather

Enter ICAO airport designator
Station Type Date Time Source
LTAC METAR 2020/02/22 05:50 UTC NOAA

LTAC 220550Z 02004KT 340V070 9999 -RASN BKN025 BKN080 01/M00 Q1015 NOSIG


Station Type Date Time Source
LTAC Decoded METAR 2020/02/22 05:50 UTC NOAA

Ankara / Esenboga, Turkey (LTAC) 40-07N 032-59E 949M
Feb 22, 2020 - 12:50 AM EST / 2020.02.22 0550 UTC
Wind: from the NNE (020 degrees) at 5 MPH (4 KT) (direction variable):0
Visibility: greater than 7 mile(s):0
Sky conditions: mostly cloudy
Weather: light rain, snow
Temperature: 33 F (1 C)
Windchill: 28 F (-2 C):1
Dew Point: 32 F (0 C)
Relative Humidity: 93%
Pressure (altimeter): 29.97 in. Hg (1015 hPa)
ob: LTAC 220550Z 02004KT 340V070 9999 -RASN BKN025 BKN080 01/M00 Q1015 NOSIG
cycle: 6

Station Type Date Time Source
LTAC TAF 2020/02/22 06:03 UTC NOAA

TAF TAF LTAC 220440Z 2206/2306 VRB02KT 9999 SCT035 BKN090
TEMPO 2206/2210 -RASN BKN025 BKN080
TEMPO 2211/2215 01012KT -RASN BKN025 BKN080

Example: see airport list